Time;durP1;ratioP1;P1;durP2;ratioP2;P2;SDS_P1;SDS_P2;PMS_P1;PMS_P2;Temp;Humidity;BMP_temperature;BMP_pressure;BME280_temperature;BME280_humidity;BME280_pressure;Samples;Min_cycle;Max_cycle;Signal;HPM_P1;HPM_P2
2023/09/10 00:01:51;;;;;;;10.40;6.47;;;;;;;;;;6159344;23;20084;-69
2023/09/10 00:04:18;;;;;;;9.55;6.30;;;;;;;;;;6185760;23;20068;-69
2023/09/10 00:06:44;;;;;;;9.70;6.18;;;;;;;;;;6185554;23;20388;-69
2023/09/10 00:09:10;;;;;;;7.20;6.50;;;;;;;;;;6185736;23;20080;-69
2023/09/10 00:11:37;;;;;;;6.72;6.00;;;;;;;;;;6185153;23;20094;-69
2023/09/10 00:14:03;;;;;;;7.53;6.55;;;;;;;;;;6185639;23;20072;-69
2023/09/10 00:16:29;;;;;;;9.25;6.90;;;;;;;;;;6185546;23;20064;-69
2023/09/10 00:18:56;;;;;;;8.02;6.43;;;;;;;;;;6185075;23;20076;-69
2023/09/10 00:21:22;;;;;;;13.88;6.90;;;;;;;;;;6159318;23;20080;-69
2023/09/10 00:23:48;;;;;;;9.55;6.47;;;;;;;;;;6185461;23;20087;-69
2023/09/10 00:26:14;;;;;;;9.30;6.43;;;;;;;;;;6185069;23;20069;-69
2023/09/10 00:28:41;;;;;;;7.57;6.78;;;;;;;;;;6185425;23;20084;-69
2023/09/10 00:31:07;;;;;;;8.07;6.95;;;;;;;;;;6185364;23;20087;-69
2023/09/10 00:33:34;;;;;;;8.82;6.78;;;;;;;;;;6185445;23;20072;-69
2023/09/10 00:36:00;;;;;;;10.77;6.30;;;;;;;;;;6185372;23;20075;-69
2023/09/10 00:38:26;;;;;;;8.20;7.10;;;;;;;;;;6184841;23;20073;-69
2023/09/10 00:40:53;;;;;;;10.85;7.15;;;;;;;;;;6185535;23;20075;-69
2023/09/10 00:43:19;;;;;;;7.35;6.65;;;;;;;;;;6185253;23;20092;-69
2023/09/10 00:45:45;;;;;;;8.07;7.18;;;;;;;;;;6185183;23;20080;-69
2023/09/10 00:48:12;;;;;;;9.32;7.00;;;;;;;;;;6185345;23;20475;-69
2023/09/10 00:50:38;;;;;;;8.13;6.65;;;;;;;;;;6184866;23;20419;-69
2023/09/10 00:53:05;;;;;;;9.95;6.95;;;;;;;;;;6184877;23;20092;-69
2023/09/10 00:55:32;;;;;;;9.40;7.28;;;;;;;;;;6185292;23;20068;-69
2023/09/10 00:57:59;;;;;;;8.85;7.30;;;;;;;;;;6184944;23;20080;-69
2023/09/10 01:00:26;;;;;;;7.63;6.90;;;;;;;;;;6184900;23;20076;-69
2023/09/10 01:02:52;;;;;;;8.13;7.30;;;;;;;;;;6185150;23;20079;-69
2023/09/10 01:05:19;;;;;;;8.18;7.32;;;;;;;;;;6185099;23;20068;-69
2023/09/10 01:07:45;;;;;;;10.60;7.50;;;;;;;;;;6184660;23;20068;-69
2023/09/10 01:10:11;;;;;;;12.32;7.25;;;;;;;;;;6158516;23;20381;-69
2023/09/10 01:12:48;;;;;;;8.32;7.00;;;;;;;;;;6158780;23;20419;-69
2023/09/10 01:15:34;;;;;;;9.38;7.45;;;;;;;;;;6184989;23;20064;-69
2023/09/10 01:18:00;;;;;;;8.30;7.28;;;;;;;;;;6184971;23;20084;-69
2023/09/10 01:20:29;;;;;;;7.80;7.00;;;;;;;;;;6184829;23;20431;-69
2023/09/10 01:23:03;;;;;;;8.48;7.57;;;;;;;;;;6184449;23;20088;-69
2023/09/10 01:25:30;;;;;;;8.40;7.32;;;;;;;;;;6184865;23;20084;-69
2023/09/10 01:27:56;;;;;;;8.05;7.25;;;;;;;;;;6184775;23;20084;-69
2023/09/10 01:30:22;;;;;;;7.85;7.05;;;;;;;;;;6184536;23;20076;-69
2023/09/10 01:32:52;;;;;;;16.05;7.20;;;;;;;;;;6185037;23;20076;-69
2023/09/10 01:35:20;;;;;;;7.50;6.50;;;;;;;;;;6184733;23;20068;-69
2023/09/10 01:37:51;;;;;;;8.00;6.57;;;;;;;;;;6158015;23;20089;-68
2023/09/10 01:40:21;;;;;;;9.32;7.40;;;;;;;;;;6184798;23;20072;-68
2023/09/10 01:42:49;;;;;;;8.18;7.28;;;;;;;;;;6184726;23;20060;-69
2023/09/10 01:45:16;;;;;;;7.97;7.00;;;;;;;;;;6184689;23;20064;-69
2023/09/10 01:47:42;;;;;;;9.18;7.40;;;;;;;;;;6184773;23;20385;-69
2023/09/10 01:50:08;;;;;;;8.90;7.43;;;;;;;;;;6184666;23;20511;-69
2023/09/10 01:52:35;;;;;;;10.55;7.47;;;;;;;;;;6184131;23;20080;-69
2023/09/10 01:55:01;;;;;;;8.23;7.43;;;;;;;;;;6184665;23;20064;-69
2023/09/10 01:57:27;;;;;;;8.63;7.70;;;;;;;;;;6184706;23;20077;-69
2023/09/10 01:59:54;;;;;;;7.78;6.97;;;;;;;;;;6184570;23;20547;-69
2023/09/10 02:02:20;;;;;;;10.52;7.60;;;;;;;;;;6158232;23;20083;-69
2023/09/10 02:04:46;;;;;;;10.30;7.18;;;;;;;;;;6185019;23;20519;-69
2023/09/10 02:07:13;;;;;;;8.70;7.18;;;;;;;;;;6184153;23;20071;-69
2023/09/10 02:09:39;;;;;;;7.90;7.10;;;;;;;;;;6184579;23;20224;-69
2023/09/10 02:12:05;;;;;;;9.63;7.57;;;;;;;;;;6184552;23;20019;-69
2023/09/10 02:14:32;;;;;;;9.25;7.20;;;;;;;;;;6158227;23;20068;-69
2023/09/10 02:16:58;;;;;;;8.77;7.43;;;;;;;;;;6184580;23;20095;-69
2023/09/10 02:19:24;;;;;;;8.43;7.43;;;;;;;;;;6184412;23;20131;-69
2023/09/10 02:21:52;;;;;;;8.75;7.30;;;;;;;;;;6184097;23;20080;-69
2023/09/10 02:24:18;;;;;;;9.05;7.60;;;;;;;;;;6184430;23;20124;-69
2023/09/10 02:26:44;;;;;;;8.90;8.00;;;;;;;;;;6184475;23;20084;-69
2023/09/10 02:29:10;;;;;;;9.68;7.90;;;;;;;;;;6184427;23;20072;-69
2023/09/10 02:31:37;;;;;;;8.55;7.65;;;;;;;;;;6184403;23;20503;-69
2023/09/10 02:34:04;;;;;;;9.00;7.85;;;;;;;;;;6184443;23;20064;-69
2023/09/10 02:36:31;;;;;;;9.02;8.05;;;;;;;;;;6184043;23;20084;-69
2023/09/10 02:38:57;;;;;;;8.90;8.05;;;;;;;;;;6184407;23;20068;-69
2023/09/10 02:41:23;;;;;;;9.52;8.52;;;;;;;;;;6184353;23;20076;-69
2023/09/10 02:43:50;;;;;;;8.52;7.63;;;;;;;;;;6185658;23;20128;-69
2023/09/10 02:46:16;;;;;;;9.18;8.13;;;;;;;;;;6160107;23;20095;-69
2023/09/10 02:48:42;;;;;;;10.13;8.35;;;;;;;;;;6186294;23;20515;-69
2023/09/10 02:51:08;;;;;;;12.15;8.75;;;;;;;;;;6185775;23;20127;-69
2023/09/10 02:53:35;;;;;;;14.20;8.40;;;;;;;;;;6186397;23;20065;-69
2023/09/10 02:56:04;;;;;;;11.43;8.63;;;;;;;;;;6186423;23;20076;-69
2023/09/10 02:58:30;;;;;;;8.73;7.82;;;;;;;;;;6186158;23;20068;-69
2023/09/10 03:01:03;;;;;;;10.57;8.02;;;;;;;;;;6186631;23;20091;-69
2023/09/10 03:03:29;;;;;;;9.68;7.85;;;;;;;;;;6185801;23;20123;-69
2023/09/10 03:05:56;;;;;;;10.02;8.30;;;;;;;;;;6186232;23;20119;-69
2023/09/10 03:08:22;;;;;;;9.35;8.35;;;;;;;;;;6186290;23;20076;-69
2023/09/10 03:10:48;;;;;;;8.50;7.68;;;;;;;;;;6186039;23;20088;-69
2023/09/10 03:13:14;;;;;;;9.55;8.55;;;;;;;;;;6186161;23;20076;-69
2023/09/10 03:15:41;;;;;;;10.10;8.65;;;;;;;;;;6185908;23;20084;-69
2023/09/10 03:18:07;;;;;;;9.55;8.32;;;;;;;;;;6185642;23;20076;-69
2023/09/10 03:20:37;;;;;;;8.77;7.78;;;;;;;;;;6185926;23;20076;-69
2023/09/10 03:23:04;;;;;;;13.77;8.55;;;;;;;;;;6185741;23;20087;-69
2023/09/10 03:25:35;;;;;;;9.63;8.63;;;;;;;;;;6159833;23;20088;-69
2023/09/10 03:28:01;;;;;;;9.45;8.45;;;;;;;;;;6185888;23;20072;-69
2023/09/10 03:30:27;;;;;;;9.65;8.50;;;;;;;;;;6185827;23;20092;-69
2023/09/10 03:32:54;;;;;;;10.50;8.68;;;;;;;;;;6185694;23;20060;-69
2023/09/10 03:35:20;;;;;;;9.40;8.00;;;;;;;;;;6185845;23;20084;-69
2023/09/10 03:37:46;;;;;;;9.43;8.25;;;;;;;;;;6185940;23;20076;-69
2023/09/10 03:40:12;;;;;;;9.20;8.10;;;;;;;;;;6185982;23;20072;-69
2023/09/10 03:42:39;;;;;;;9.40;8.48;;;;;;;;;;6185796;23;20480;-69
2023/09/10 03:45:06;;;;;;;9.18;7.82;;;;;;;;;;6185856;23;20072;-69
2023/09/10 03:47:33;;;;;;;10.10;8.57;;;;;;;;;;6185451;23;20072;-69
2023/09/10 03:50:00;;;;;;;10.55;7.70;;;;;;;;;;6185709;23;20088;-69
2023/09/10 03:52:27;;;;;;;8.88;7.97;;;;;;;;;;6159555;23;20492;-69
2023/09/10 03:54:53;;;;;;;10.57;7.68;;;;;;;;;;6159433;23;20119;-69
2023/09/10 03:57:19;;;;;;;8.77;7.88;;;;;;;;;;6185723;23;20496;-69
2023/09/10 03:59:46;;;;;;;9.30;8.32;;;;;;;;;;6185625;23;20076;-69
2023/09/10 04:02:12;;;;;;;10.27;8.88;;;;;;;;;;6185370;23;20512;-69
2023/09/10 04:04:39;;;;;;;9.52;8.35;;;;;;;;;;6159320;23;20076;-69
2023/09/10 04:07:06;;;;;;;9.65;8.07;;;;;;;;;;6185573;23;20076;-69
2023/09/10 04:09:32;;;;;;;11.30;8.35;;;;;;;;;;6185715;23;20520;-69
2023/09/10 04:11:58;;;;;;;12.15;8.55;;;;;;;;;;6185436;23;20079;-69
2023/09/10 04:14:26;;;;;;;11.02;8.82;;;;;;;;;;6185583;23;20506;-69
2023/09/10 04:16:52;;;;;;;9.60;8.60;;;;;;;;;;6185303;23;20068;-69
2023/09/10 04:19:19;;;;;;;9.38;8.35;;;;;;;;;;6185496;23;20496;-69
2023/09/10 04:21:45;;;;;;;11.25;8.77;;;;;;;;;;6185532;23;20077;-69
2023/09/10 04:24:11;;;;;;;11.15;9.00;;;;;;;;;;6185356;23;20092;-69
2023/09/10 04:26:37;;;;;;;13.00;8.85;;;;;;;;;;6185442;23;20068;-69
2023/09/10 04:29:04;;;;;;;10.48;8.88;;;;;;;;;;6185299;23;20083;-69
2023/09/10 04:31:30;;;;;;;9.20;8.18;;;;;;;;;;6184886;23;20084;-69
2023/09/10 04:33:57;;;;;;;9.73;8.60;;;;;;;;;;6185368;23;20382;-69
2023/09/10 04:36:23;;;;;;;9.38;8.35;;;;;;;;;;6185320;23;20072;-69
2023/09/10 04:38:49;;;;;;;10.90;8.18;;;;;;;;;;6185397;23;20072;-69
2023/09/10 04:41:16;;;;;;;10.75;9.20;;;;;;;;;;6185363;23;20067;-68
2023/09/10 04:43:42;;;;;;;9.80;8.80;;;;;;;;;;6158842;23;20096;-69
2023/09/10 04:46:08;;;;;;;14.95;8.75;;;;;;;;;;6158618;23;20428;-69
2023/09/10 04:48:34;;;;;;;10.15;8.57;;;;;;;;;;6185195;23;20072;-69
2023/09/10 04:51:01;;;;;;;19.55;8.90;;;;;;;;;;6185218;23;20499;-69
2023/09/10 04:53:27;;;;;;;12.85;8.90;;;;;;;;;;6185222;23;20099;-69
2023/09/10 04:55:54;;;;;;;11.27;8.98;;;;;;;;;;6185088;23;20088;-69
2023/09/10 04:58:21;;;;;;;11.82;8.88;;;;;;;;;;6185186;23;20423;-69
2023/09/10 05:00:50;;;;;;;10.38;8.32;;;;;;;;;;6184706;23;20072;-69
2023/09/10 05:03:16;;;;;;;11.13;9.07;;;;;;;;;;6158811;23;20087;-69
2023/09/10 05:05:42;;;;;;;12.80;8.90;;;;;;;;;;6184871;23;20060;-69
2023/09/10 05:08:09;;;;;;;12.15;9.18;;;;;;;;;;6184936;23;20499;-69
2023/09/10 05:10:35;;;;;;;10.07;8.63;;;;;;;;;;6184995;23;20080;-69
2023/09/10 05:13:02;;;;;;;9.90;8.63;;;;;;;;;;6184998;23;20084;-69
2023/09/10 05:15:28;;;;;;;10.75;9.57;;;;;;;;;;6184648;23;20064;-69
2023/09/10 05:17:55;;;;;;;10.13;8.65;;;;;;;;;;6184875;23;20523;-69
2023/09/10 05:20:21;;;;;;;9.95;8.95;;;;;;;;;;6184936;23;20060;-69
2023/09/10 05:22:47;;;;;;;10.25;8.77;;;;;;;;;;6184732;23;20373;-69
2023/09/10 05:25:14;;;;;;;9.85;8.85;;;;;;;;;;6158530;23;20080;-69
2023/09/10 05:27:40;;;;;;;11.32;9.52;;;;;;;;;;6184887;23;20076;-69
2023/09/10 05:30:07;;;;;;;9.55;8.55;;;;;;;;;;6184395;23;20100;-69
2023/09/10 05:32:33;;;;;;;10.23;9.18;;;;;;;;;;6184785;23;20071;-69
2023/09/10 05:34:59;;;;;;;12.07;8.63;;;;;;;;;;6184870;23;20080;-69
2023/09/10 05:37:25;;;;;;;10.00;8.55;;;;;;;;;;6158568;23;20068;-69
2023/09/10 05:39:52;;;;;;;11.43;8.95;;;;;;;;;;6184833;23;20068;-69
2023/09/10 05:42:18;;;;;;;11.57;8.70;;;;;;;;;;6184805;23;20076;-69
2023/09/10 05:44:44;;;;;;;13.23;9.57;;;;;;;;;;6184260;23;20076;-69
2023/09/10 05:47:11;;;;;;;10.43;8.52;;;;;;;;;;6184720;23;20080;-69
2023/09/10 05:49:37;;;;;;;11.68;8.68;;;;;;;;;;6184690;23;20068;-69
2023/09/10 05:52:04;;;;;;;9.63;8.63;;;;;;;;;;6184654;23;20017;-69
2023/09/10 05:54:30;;;;;;;11.45;8.93;;;;;;;;;;6184628;23;20404;-69
2023/09/10 05:56:57;;;;;;;9.70;8.70;;;;;;;;;;6184693;23;20080;-69
2023/09/10 05:59:23;;;;;;;15.40;9.18;;;;;;;;;;6184162;23;20068;-69
2023/09/10 06:01:49;;;;;;;10.50;9.07;;;;;;;;;;6184655;23;20068;-69
2023/09/10 06:04:15;;;;;;;11.38;8.38;;;;;;;;;;6184686;23;20068;-69
2023/09/10 06:06:42;;;;;;;12.75;9.52;;;;;;;;;;6184567;23;20124;-69
2023/09/10 06:09:09;;;;;;;10.20;8.70;;;;;;;;;;6184464;23;20100;-69
2023/09/10 06:11:35;;;;;;;11.50;9.25;;;;;;;;;;6184551;23;20065;-69
2023/09/10 06:14:02;;;;;;;14.57;8.98;;;;;;;;;;6184339;23;20076;-69
2023/09/10 06:16:28;;;;;;;11.05;9.27;;;;;;;;;;6184518;23;20081;-68
2023/09/10 06:18:55;;;;;;;10.63;9.02;;;;;;;;;;6184510;23;20064;-69
2023/09/10 06:21:21;;;;;;;10.10;9.10;;;;;;;;;;6184351;23;20520;-70
2023/09/10 06:23:47;;;;;;;10.75;8.90;;;;;;;;;;6184378;23;20084;-69
2023/09/10 06:26:14;;;;;;;12.32;9.15;;;;;;;;;;6184478;23;20080;-69
2023/09/10 06:28:40;;;;;;;12.35;9.27;;;;;;;;;;6184099;23;20083;-69
2023/09/10 06:31:08;;;;;;;11.10;8.80;;;;;;;;;;6184324;23;20087;-69
2023/09/10 06:33:34;;;;;;;9.77;8.65;;;;;;;;;;6184474;23;20068;-69
2023/09/10 06:36:01;;;;;;;10.30;8.60;;;;;;;;;;6184380;23;20085;-69
2023/09/10 06:38:28;;;;;;;10.10;8.57;;;;;;;;;;6157967;23;20503;-69
2023/09/10 06:40:55;;;;;;;10.80;9.40;;;;;;;;;;6184277;23;20073;-69
2023/09/10 06:43:21;;;;;;;10.02;9.00;;;;;;;;;;6184353;23;20080;-69
2023/09/10 06:45:50;;;;;;;9.63;8.40;;;;;;;;;;6184272;23;20080;-69
2023/09/10 06:48:18;;;;;;;11.43;8.90;;;;;;;;;;6184261;23;20028;-68
2023/09/10 06:50:45;;;;;;;12.05;8.07;;;;;;;;;;6184315;23;20084;-68
2023/09/10 06:53:11;;;;;;;10.88;8.50;;;;;;;;;;6184310;23;20427;-69
2023/09/10 06:55:37;;;;;;;9.82;8.45;;;;;;;;;;6184043;23;20080;-69
2023/09/10 06:58:04;;;;;;;11.05;7.72;;;;;;;;;;6184502;23;20511;-69
2023/09/10 07:00:30;;;;;;;9.57;8.55;;;;;;;;;;6184280;23;20076;-69
2023/09/10 07:02:57;;;;;;;15.10;8.25;;;;;;;;;;6184383;23;20136;-69
2023/09/10 07:05:24;;;;;;;12.00;8.13;;;;;;;;;;6184399;23;20068;-69
2023/09/10 07:07:53;;;;;;;8.48;7.65;;;;;;;;;;6184148;23;20068;-69
2023/09/10 07:10:20;;;;;;;10.23;7.85;;;;;;;;;;6183834;23;20076;-69
2023/09/10 07:12:46;;;;;;;9.55;8.20;;;;;;;;;;6184376;23;20068;-69
2023/09/10 07:15:12;;;;;;;11.77;8.07;;;;;;;;;;6184278;23;20076;-69
2023/09/10 07:17:39;;;;;;;9.10;7.70;;;;;;;;;;6184220;23;20378;-69
2023/09/10 07:20:05;;;;;;;11.23;7.63;;;;;;;;;;6184246;23;20080;-69
2023/09/10 07:22:31;;;;;;;9.27;7.63;;;;;;;;;;6157724;23;20088;-69
2023/09/10 07:24:58;;;;;;;8.70;7.80;;;;;;;;;;6183790;23;20575;-68
2023/09/10 07:27:24;;;;;;;10.90;8.15;;;;;;;;;;6184180;23;20064;-69
2023/09/10 07:29:50;;;;;;;7.82;7.03;;;;;;;;;;6185286;23;20397;-69
2023/09/10 07:32:17;;;;;;;8.73;7.68;;;;;;;;;;6185940;23;20080;-69
2023/09/10 07:34:43;;;;;;;9.18;7.85;;;;;;;;;;6185978;23;20072;-69
2023/09/10 07:37:09;;;;;;;12.68;7.78;;;;;;;;;;6159618;23;20495;-69
2023/09/10 07:39:35;;;;;;;8.20;7.40;;;;;;;;;;6185516;23;20072;-69
2023/09/10 07:42:02;;;;;;;8.43;7.53;;;;;;;;;;6159616;23;20075;-69
2023/09/10 07:44:28;;;;;;;8.68;7.22;;;;;;;;;;6185978;23;20075;-69
2023/09/10 07:46:54;;;;;;;14.07;6.72;;;;;;;;;;6185967;23;20072;-69
2023/09/10 07:49:21;;;;;;;7.13;6.43;;;;;;;;;;6185720;23;20139;-69
2023/09/10 07:51:47;;;;;;;7.10;6.38;;;;;;;;;;6185785;23;20080;-69
2023/09/10 07:54:13;;;;;;;6.90;6.20;;;;;;;;;;6185520;23;20076;-70
2023/09/10 07:56:40;;;;;;;8.48;5.80;;;;;;;;;;6185719;23;20531;-70
2023/09/10 07:59:08;;;;;;;8.52;5.53;;;;;;;;;;6159361;23;20080;-70
2023/09/10 08:01:34;;;;;;;7.35;5.57;;;;;;;;;;6185712;23;20077;-70
2023/09/10 08:04:00;;;;;;;5.75;5.10;;;;;;;;;;6185755;23;20072;-70
2023/09/10 08:06:27;;;;;;;6.00;5.20;;;;;;;;;;6185656;23;20068;-70
2023/09/10 08:08:53;;;;;;;5.68;5.18;;;;;;;;;;6185698;23;20491;-70
2023/09/10 08:11:19;;;;;;;5.40;4.95;;;;;;;;;;6185522;23;20092;-71
2023/09/10 08:13:46;;;;;;;7.68;4.78;;;;;;;;;;6159204;23;20065;-71
2023/09/10 08:16:13;;;;;;;5.55;5.05;;;;;;;;;;6185739;23;20068;-71
2023/09/10 08:18:40;;;;;;;5.47;4.95;;;;;;;;;;6185493;23;20578;-71
2023/09/10 08:21:07;;;;;;;5.78;4.68;;;;;;;;;;6185517;23;20068;-71
2023/09/10 08:23:33;;;;;;;5.00;4.53;;;;;;;;;;6158717;23;20096;-71
2023/09/10 08:25:59;;;;;;;7.97;4.65;;;;;;;;;;6185641;23;20088;-69
2023/09/10 08:28:26;;;;;;;4.88;4.45;;;;;;;;;;6185440;23;20119;-69
2023/09/10 08:30:53;;;;;;;4.60;4.05;;;;;;;;;;6185373;23;20503;-69
2023/09/10 08:33:21;;;;;;;7.03;4.80;;;;;;;;;;6185362;23;20131;-69
2023/09/10 08:35:51;;;;;;;5.00;4.50;;;;;;;;;;6185407;23;20069;-69
2023/09/10 08:38:17;;;;;;;4.50;4.05;;;;;;;;;;6184987;23;20084;-69
2023/09/10 08:40:50;;;;;;;4.15;3.80;;;;;;;;;;6158543;23;20064;-69
2023/09/10 08:43:18;;;;;;;4.82;4.43;;;;;;;;;;6185023;23;20381;-69
2023/09/10 08:45:45;;;;;;;8.00;4.63;;;;;;;;;;6185361;23;20127;-69
2023/09/10 08:48:12;;;;;;;4.45;4.05;;;;;;;;;;6185547;23;20076;-69
2023/09/10 08:50:39;;;;;;;7.97;4.32;;;;;;;;;;6185001;23;20080;-70
2023/09/10 08:53:06;;;;;;;4.88;4.10;;;;;;;;;;6184866;23;20499;-70
2023/09/10 08:55:35;;;;;;;4.35;3.95;;;;;;;;;;6185422;23;20072;-69
2023/09/10 08:58:02;;;;;;;6.28;3.85;;;;;;;;;;6185116;23;20579;-69
2023/09/10 09:00:29;;;;;;;7.13;3.97;;;;;;;;;;6184917;23;20523;-69
2023/09/10 09:02:56;;;;;;;5.50;4.18;;;;;;;;;;6185403;23;20091;-69
2023/09/10 09:05:22;;;;;;;4.43;4.03;;;;;;;;;;6185073;23;20469;-69
2023/09/10 09:07:54;;;;;;;4.47;3.85;;;;;;;;;;6184501;23;20076;-70
2023/09/10 09:10:27;;;;;;;4.25;3.95;;;;;;;;;;6158752;23;20068;-69
2023/09/10 09:12:59;;;;;;;6.45;4.00;;;;;;;;;;6185037;23;20504;-69
2023/09/10 09:15:26;;;;;;;5.18;4.00;;;;;;;;;;6185046;23;20072;-69
2023/09/10 09:17:54;;;;;;;4.60;3.97;;;;;;;;;;6184921;23;20080;-69
2023/09/10 09:20:21;;;;;;;6.32;3.33;;;;;;;;;;6185239;23;20077;-69
2023/09/10 09:22:49;;;;;;;4.05;3.75;;;;;;;;;;6184589;23;20408;-70
2023/09/10 09:25:16;;;;;;;4.20;3.90;;;;;;;;;;6183412;23;20077;-69
2023/09/10 09:27:43;;;;;;;3.92;3.58;;;;;;;;;;6183521;23;20500;-70
2023/09/10 09:30:11;;;;;;;7.13;3.90;;;;;;;;;;6157343;23;20076;-70
2023/09/10 09:32:38;;;;;;;4.45;4.05;;;;;;;;;;6183678;23;20084;-70
2023/09/10 09:35:05;;;;;;;7.70;4.07;;;;;;;;;;6183269;23;20065;-70
2023/09/10 09:37:32;;;;;;;3.70;3.40;;;;;;;;;;6183534;23;20088;-69
2023/09/10 09:40:11;;;;;;;4.28;3.63;;;;;;;;;;6183623;23;20104;-70
2023/09/10 09:42:38;;;;;;;9.27;3.92;;;;;;;;;;6183397;23;20094;-70
2023/09/10 09:45:05;;;;;;;4.05;3.72;;;;;;;;;;6183533;23;20060;-70
2023/09/10 09:47:32;;;;;;;4.72;3.80;;;;;;;;;;6183655;23;20139;-70
2023/09/10 09:49:58;;;;;;;3.75;3.40;;;;;;;;;;6183085;23;20068;-70
2023/09/10 09:52:25;;;;;;;4.00;3.60;;;;;;;;;;6183309;23;20077;-70
2023/09/10 09:54:51;;;;;;;3.95;3.53;;;;;;;;;;6183571;23;20075;-69
2023/09/10 09:57:18;;;;;;;4.00;3.70;;;;;;;;;;6183385;23;20072;-70
2023/09/10 09:59:44;;;;;;;5.78;3.60;;;;;;;;;;6183543;23;20085;-70
2023/09/10 10:02:15;;;;;;;4.32;3.45;;;;;;;;;;6183392;23;20143;-69
2023/09/10 10:04:41;;;;;;;3.80;3.50;;;;;;;;;;6182854;23;20075;-70
2023/09/10 10:07:09;;;;;;;4.05;3.63;;;;;;;;;;6183394;23;20383;-70
2023/09/10 10:09:36;;;;;;;4.10;3.80;;;;;;;;;;6183455;23;20120;-70
2023/09/10 10:12:05;;;;;;;4.40;3.40;;;;;;;;;;6183416;23;20084;-70
2023/09/10 10:14:32;;;;;;;4.47;3.90;;;;;;;;;;6183397;23;20076;-69
2023/09/10 10:17:01;;;;;;;3.85;3.55;;;;;;;;;;6183407;23;20600;-70
2023/09/10 10:19:31;;;;;;;5.03;3.42;;;;;;;;;;6182834;23;20072;-70
2023/09/10 10:21:57;;;;;;;5.15;3.55;;;;;;;;;;6156935;23;20080;-70
2023/09/10 10:24:24;;;;;;;6.50;3.47;;;;;;;;;;6134642;23;1163582;-70
2023/09/10 10:26:51;;;;;;;4.68;3.70;;;;;;;;;;6184515;23;20387;-69
2023/09/10 10:29:18;;;;;;;4.22;3.35;;;;;;;;;;6184322;23;20132;-69
2023/09/10 10:31:48;;;;;;;4.22;3.15;;;;;;;;;;6184416;23;20377;-70
2023/09/10 10:34:15;;;;;;;5.50;3.50;;;;;;;;;;6184112;23;20076;-70
2023/09/10 10:37:00;;;;;;;3.47;3.17;;;;;;;;;;6158001;23;20137;-70
2023/09/10 10:39:47;;;;;;;3.67;3.30;;;;;;;;;;6184391;23;20072;-70
2023/09/10 10:42:14;;;;;;;4.38;3.80;;;;;;;;;;6184331;23;20084;-70
2023/09/10 10:44:41;;;;;;;4.47;3.08;;;;;;;;;;6184378;23;20084;-70
2023/09/10 10:47:17;;;;;;;3.45;3.15;;;;;;;;;;6184617;23;20084;-70
2023/09/10 10:49:54;;;;;;;3.33;3.03;;;;;;;;;;6183896;23;20139;-70
2023/09/10 10:52:23;;;;;;;4.65;2.97;;;;;;;;;;6184338;23;20124;-70
2023/09/10 10:54:51;;;;;;;4.03;3.03;;;;;;;;;;6184366;23;20072;-70
2023/09/10 10:57:20;;;;;;;3.95;3.17;;;;;;;;;;6184204;23;20072;-70
2023/09/10 10:59:46;;;;;;;3.10;2.80;;;;;;;;;;6184395;23;20072;-70
2023/09/10 11:02:21;;;;;;;3.28;3.00;;;;;;;;;;6183836;23;20401;-70
2023/09/10 11:04:54;;;;;;;3.53;2.80;;;;;;;;;;6185546;23;20080;-70
2023/09/10 11:07:22;;;;;;;3.97;3.00;;;;;;;;;;6185932;23;20080;-70
2023/09/10 11:09:48;;;;;;;3.00;2.80;;;;;;;;;;6159844;23;20079;-70
2023/09/10 11:12:15;;;;;;;2.63;2.42;;;;;;;;;;6186285;23;20084;-70
2023/09/10 11:15:00;;;;;;;2.63;2.40;;;;;;;;;;6186126;23;20072;-70
2023/09/10 11:17:36;;;;;;;2.63;2.10;;;;;;;;;;6185680;23;20559;-70
2023/09/10 11:20:06;;;;;;;3.03;2.20;;;;;;;;;;6186109;23;20079;-70
2023/09/10 11:22:51;;;;;;;2.58;2.38;;;;;;;;;;6185830;23;20084;-70
2023/09/10 11:25:17;;;;;;;2.15;2.00;;;;;;;;;;6186018;23;20500;-70
2023/09/10 11:27:44;;;;;;;2.08;1.98;;;;;;;;;;6185937;23;20064;-70
2023/09/10 11:30:14;;;;;;;3.85;2.17;;;;;;;;;;6159747;23;20068;-70
2023/09/10 11:32:41;;;;;;;3.63;2.38;;;;;;;;;;6185478;23;20068;-69
2023/09/10 11:35:20;;;;;;;2.55;2.10;;;;;;;;;;6186101;23;20076;-70
2023/09/10 11:37:48;;;;;;;2.15;1.95;;;;;;;;;;6185950;23;20080;-70
2023/09/10 11:40:14;;;;;;;2.25;2.05;;;;;;;;;;6186137;23;20068;-70
2023/09/10 11:42:44;;;;;;;2.20;2.00;;;;;;;;;;6185975;23;20080;-70
2023/09/10 11:45:11;;;;;;;3.92;1.98;;;;;;;;;;6185995;23;20072;-70
2023/09/10 11:47:47;;;;;;;2.17;1.90;;;;;;;;;;6185536;23;20073;-70
2023/09/10 11:50:14;;;;;;;2.42;1.95;;;;;;;;;;6185971;23;20515;-70
2023/09/10 11:52:41;;;;;;;2.50;2.30;;;;;;;;;;6185763;23;20089;-70
2023/09/10 11:55:10;;;;;;;2.40;2.20;;;;;;;;;;6185797;23;20081;-70
2023/09/10 11:57:36;;;;;;;;;;;;;;;;;;6186341;23;20402;-70
2023/09/10 12:00:05;;;;;;;3.28;2.20;;;;;;;;;;6185463;23;19983;-70
2023/09/10 12:02:31;;;;;;;2.10;1.90;;;;;;;;;;6185516;23;20116;-70
2023/09/10 12:05:02;;;;;;;2.22;1.98;;;;;;;;;;6185653;23;20535;-70
2023/09/10 12:07:28;;;;;;;2.33;2.13;;;;;;;;;;6185613;23;20076;-70
2023/09/10 12:09:55;;;;;;;2.15;1.95;;;;;;;;;;6185636;23;20115;-70
2023/09/10 12:12:24;;;;;;;2.83;2.00;;;;;;;;;;6185639;23;20068;-70
2023/09/10 12:14:50;;;;;;;2.13;1.92;;;;;;;;;;6185071;23;20072;-70
2023/09/10 12:17:17;;;;;;;2.30;2.10;;;;;;;;;;6185482;23;20080;-70
2023/09/10 12:19:43;;;;;;;2.28;1.95;;;;;;;;;;6185962;23;20072;-70
2023/09/10 12:22:11;;;;;;;2.58;2.38;;;;;;;;;;6185508;23;20076;-70
2023/09/10 12:24:38;;;;;;;2.13;1.92;;;;;;;;;;6185363;23;20084;-70
2023/09/10 12:27:04;;;;;;;2.40;2.20;;;;;;;;;;6185296;23;20076;-70
2023/09/10 12:29:31;;;;;;;2.40;2.20;;;;;;;;;;6185189;23;20068;-70
2023/09/10 12:31:57;;;;;;;2.70;2.33;;;;;;;;;;6185389;23;20072;-70
2023/09/10 12:34:25;;;;;;;1.80;1.70;;;;;;;;;;6185510;23;20519;-70
2023/09/10 12:36:51;;;;;;;2.40;2.20;;;;;;;;;;6185563;23;20511;-70
2023/09/10 12:39:22;;;;;;;2.42;2.20;;;;;;;;;;6185250;23;20076;-70
2023/09/10 12:41:52;;;;;;;2.90;2.28;;;;;;;;;;6185305;23;20076;-70
2023/09/10 12:44:19;;;;;;;3.05;2.45;;;;;;;;;;6184835;23;20385;-70
2023/09/10 12:46:46;;;;;;;2.17;2.03;;;;;;;;;;6185339;23;20097;-70
2023/09/10 12:49:12;;;;;;;2.70;2.10;;;;;;;;;;6185252;23;20468;-70
2023/09/10 12:51:39;;;;;;;2.55;2.17;;;;;;;;;;6185263;23;20068;-70
2023/09/10 12:54:05;;;;;;;2.83;1.73;;;;;;;;;;6159226;23;20092;-70
2023/09/10 12:56:32;;;;;;;2.58;2.38;;;;;;;;;;6185086;23;20072;-70
2023/09/10 12:58:58;;;;;;;2.15;1.90;;;;;;;;;;6184813;23;20071;-70
2023/09/10 13:01:25;;;;;;;2.83;2.30;;;;;;;;;;6185067;23;20084;-70
2023/09/10 13:03:52;;;;;;;2.33;2.10;;;;;;;;;;6185006;23;20084;-70
2023/09/10 13:06:18;;;;;;;2.95;2.45;;;;;;;;;;6185232;23;20072;-70
2023/09/10 13:08:45;;;;;;;2.58;2.17;;;;;;;;;;6185062;23;20092;-70
2023/09/10 13:11:11;;;;;;;2.35;2.05;;;;;;;;;;6185081;23;20068;-70
2023/09/10 13:13:37;;;;;;;2.45;2.00;;;;;;;;;;6184649;23;20080;-70
2023/09/10 13:16:04;;;;;;;4.03;2.03;;;;;;;;;;6184967;23;20088;-70
2023/09/10 13:18:30;;;;;;;2.47;2.25;;;;;;;;;;6184980;23;20076;-70
2023/09/10 13:20:56;;;;;;;2.35;2.25;;;;;;;;;;6158642;23;20076;-70
2023/09/10 13:23:23;;;;;;;2.30;2.10;;;;;;;;;;6184862;23;20127;-70
2023/09/10 13:25:49;;;;;;;2.28;2.13;;;;;;;;;;6184938;23;20499;-70
2023/09/10 13:28:15;;;;;;;2.05;1.95;;;;;;;;;;6183933;23;20095;-70
2023/09/10 13:30:43;;;;;;;2.28;2.08;;;;;;;;;;6184902;23;20072;-70
2023/09/10 13:33:10;;;;;;;8.82;2.20;;;;;;;;;;6184870;23;20432;-70
2023/09/10 13:35:39;;;;;;;3.10;2.40;;;;;;;;;;6158579;23;20085;-70
2023/09/10 13:38:06;;;;;;;4.28;2.42;;;;;;;;;;6184748;23;20558;-70
2023/09/10 13:40:35;;;;;;;2.60;2.00;;;;;;;;;;6184722;23;20076;-70
2023/09/10 13:43:01;;;;;;;4.05;2.20;;;;;;;;;;6184489;23;20084;-70
2023/09/10 13:45:27;;;;;;;2.20;2.00;;;;;;;;;;6184757;23;20072;-70
2023/09/10 13:47:54;;;;;;;2.50;2.30;;;;;;;;;;6184607;23;20080;-70
2023/09/10 13:50:20;;;;;;;6.15;2.30;;;;;;;;;;6184718;23;20088;-71
2023/09/10 13:52:46;;;;;;;2.38;2.17;;;;;;;;;;6184653;23;20084;-70
2023/09/10 13:55:12;;;;;;;2.38;2.17;;;;;;;;;;6184545;23;20377;-70
2023/09/10 13:57:39;;;;;;;2.63;2.00;;;;;;;;;;6184228;23;20079;-70
2023/09/10 14:00:06;;;;;;;2.35;2.08;;;;;;;;;;6184771;23;20369;-70
2023/09/10 14:02:33;;;;;;;2.15;1.98;;;;;;;;;;6184435;23;20089;-70
2023/09/10 14:04:59;;;;;;;3.47;2.15;;;;;;;;;;6184665;23;20076;-70
2023/09/10 14:07:25;;;;;;;2.40;2.20;;;;;;;;;;6184584;23;20080;-70
2023/09/10 14:09:52;;;;;;;2.42;2.05;;;;;;;;;;6184709;23;20080;-70
2023/09/10 14:12:18;;;;;;;1.90;1.80;;;;;;;;;;6184270;23;20067;-70
2023/09/10 14:14:44;;;;;;;2.75;2.30;;;;;;;;;;6184497;23;20068;-70
2023/09/10 14:17:11;;;;;;;2.53;2.20;;;;;;;;;;6184398;23;20064;-70
2023/09/10 14:19:37;;;;;;;2.65;2.00;;;;;;;;;;6184576;23;20085;-70
2023/09/10 14:22:04;;;;;;;4.00;1.90;;;;;;;;;;6184497;23;20520;-70
2023/09/10 14:24:31;;;;;;;2.60;2.20;;;;;;;;;;6184259;23;20080;-69
2023/09/10 14:26:58;;;;;;;2.40;2.20;;;;;;;;;;6184015;23;20095;-70
2023/09/10 14:29:25;;;;;;;3.03;1.88;;;;;;;;;;6184563;23;20068;-70
2023/09/10 14:31:58;;;;;;;2.50;2.30;;;;;;;;;;6184417;23;20072;-69
2023/09/10 14:34:24;;;;;;;2.95;2.50;;;;;;;;;;6184589;23;20068;-69
2023/09/10 14:36:51;;;;;;;5.25;2.47;;;;;;;;;;6184396;23;20423;-70
2023/09/10 14:39:17;;;;;;;2.88;2.60;;;;;;;;;;6185159;23;20510;-69
2023/09/10 14:41:44;;;;;;;3.47;2.50;;;;;;;;;;6185962;23;20128;-70